createdAt,value
2018-06-28T00:00:07.749Z,98359.26
2018-06-28T00:00:39.355Z,98360.96
2018-06-28T00:01:10.961Z,98360.16
2018-06-28T00:01:42.574Z,98358.45
2018-06-28T00:02:14.181Z,98358.03
2018-06-28T00:02:45.839Z,98351.64
2018-06-28T00:03:17.423Z,98362.72
2018-06-28T00:03:49.097Z,98363.99
2018-06-28T00:04:20.706Z,98360.58
2018-06-28T00:04:52.313Z,98360.54
2018-06-28T00:05:23.884Z,98355.03
2018-06-28T00:05:55.466Z,98357.98
2018-06-28T00:06:27.032Z,98350.78
2018-06-28T00:06:58.644Z,98361.02
2018-06-28T00:07:30.225Z,98356.75
2018-06-28T00:08:01.806Z,98358.03
2018-06-28T00:08:33.407Z,98352.06
2018-06-28T00:09:05.014Z,98361.86
2018-06-28T00:09:36.617Z,98357.22
2018-06-28T00:10:08.221Z,98355.91
2018-06-28T00:10:39.815Z,98353.41
2018-06-28T00:11:11.408Z,98357.66
2018-06-28T00:11:43.057Z,98355.11
2018-06-28T00:12:14.666Z,98359.80
2018-06-28T00:12:46.277Z,98356.80
2018-06-28T00:13:17.881Z,98354.20
2018-06-28T00:13:49.476Z,98356.75
2018-06-28T00:14:21.056Z,98354.61
2018-06-28T00:14:52.673Z,98352.06
2018-06-28T00:15:24.326Z,98354.20
2018-06-28T00:15:55.938Z,98352.95
2018-06-28T00:16:27.522Z,98351.25
2018-06-28T00:16:59.146Z,98350.78
2018-06-28T00:17:30.749Z,98357.66
2018-06-28T00:18:02.362Z,98351.27
2018-06-28T00:18:33.950Z,98349.55
2018-06-28T00:19:05.534Z,98354.25
2018-06-28T00:19:37.158Z,98356.81
2018-06-28T00:20:08.738Z,98353.41
2018-06-28T00:20:40.343Z,98355.11
2018-06-28T00:21:11.940Z,98355.53
2018-06-28T00:21:43.549Z,98352.55
2018-06-28T00:22:15.127Z,98354.72
2018-06-28T00:22:46.774Z,98361.12
2018-06-28T00:23:18.381Z,98352.16
2018-06-28T00:23:49.957Z,98354.30
2018-06-28T00:24:21.557Z,98356.44
2018-06-28T00:24:53.181Z,98359.01
2018-06-28T00:25:24.766Z,98357.66
2018-06-28T00:25:56.369Z,98353.02
2018-06-28T00:26:27.954Z,98353.02
2018-06-28T00:26:59.548Z,98356.44
2018-06-28T00:27:31.142Z,98352.59
2018-06-28T00:28:02.725Z,98355.16
2018-06-28T00:28:34.293Z,98354.68
2018-06-28T00:29:05.892Z,98355.14
2018-06-28T00:29:37.468Z,98350.84
2018-06-28T00:30:09.102Z,98352.17
2018-06-28T00:30:40.676Z,98351.33
2018-06-28T00:31:12.279Z,98350.03
2018-06-28T00:31:43.862Z,98354.72
2018-06-28T00:32:15.442Z,98356.44
2018-06-28T00:32:47.077Z,98355.14
2018-06-28T00:33:18.661Z,98352.59
2018-06-28T00:33:50.228Z,98354.73
2018-06-28T00:34:21.838Z,98353.02
2018-06-28T00:34:53.422Z,98355.58
2018-06-28T00:35:25.046Z,98357.65
2018-06-28T00:35:56.685Z,98357.61
2018-06-28T00:36:28.350Z,98351.64
2018-06-28T00:36:59.953Z,98349.91
2018-06-28T00:37:31.542Z,98358.77
2018-06-28T00:38:03.112Z,98351.09
2018-06-28T00:38:34.690Z,98356.64
2018-06-28T00:39:06.280Z,98351.51
2018-06-28T00:39:37.884Z,98347.67
2018-06-28T00:40:09.490Z,98351.98
2018-06-28T00:40:41.088Z,98353.69
2018-06-28T00:41:12.738Z,98348.58
2018-06-28T00:41:44.322Z,98350.70
2018-06-28T00:42:15.906Z,98345.97
2018-06-28T00:42:47.486Z,98353.69
2018-06-28T00:43:19.055Z,98352.85
2018-06-28T00:43:50.648Z,98350.28
2018-06-28T00:44:22.230Z,98354.13
2018-06-28T00:44:53.814Z,98350.30
2018-06-28T00:45:25.380Z,98350.30
2018-06-28T00:45:56.962Z,98350.30
2018-06-28T00:46:28.605Z,98346.50
2018-06-28T00:47:00.218Z,98347.74
2018-06-28T00:47:31.792Z,98349.43
2018-06-28T00:48:03.379Z,98341.33
2018-06-28T00:48:34.962Z,98346.87
2018-06-28T00:49:06.544Z,98348.14
2018-06-28T00:49:38.150Z,98346.87
2018-06-28T00:50:09.734Z,98340.47
2018-06-28T00:50:41.334Z,98340.90
2018-06-28T00:51:12.958Z,98346.44
2018-06-28T00:51:44.558Z,98346.87
2018-06-28T00:52:16.142Z,98342.17
2018-06-28T00:52:47.797Z,98350.71
2018-06-28T00:53:19.392Z,98343.47
2018-06-28T00:53:50.974Z,98345.61
2018-06-28T00:54:22.582Z,98353.70
2018-06-28T00:54:54.169Z,98350.30
2018-06-28T00:55:25.744Z,98344.80
2018-06-28T00:55:57.336Z,98347.36
2018-06-28T00:56:28.949Z,98346.50
2018-06-28T00:57:00.552Z,98346.07
2018-06-28T00:57:32.137Z,98338.83
2018-06-28T00:58:03.705Z,98341.39
2018-06-28T00:58:35.318Z,98343.09
2018-06-28T00:59:06.897Z,98338.41
2018-06-28T00:59:38.484Z,98334.98
2018-06-28T01:00:10.070Z,98346.08
2018-06-28T01:00:41.654Z,98336.27
2018-06-28T01:01:13.257Z,98333.29
2018-06-28T01:01:44.838Z,98339.26
2018-06-28T01:02:16.485Z,98336.27
2018-06-28T01:02:48.070Z,98337.56
2018-06-28T01:03:19.674Z,98340.91
2018-06-28T01:03:51.308Z,98337.92
2018-06-28T01:04:22.909Z,98333.23
2018-06-28T01:04:54.480Z,98337.50
2018-06-28T01:05:26.058Z,98335.78
2018-06-28T01:05:57.642Z,98331.09
2018-06-28T01:06:29.236Z,98339.61
2018-06-28T01:07:00.829Z,98340.48
2018-06-28T01:07:32.416Z,98335.36
2018-06-28T01:08:04.021Z,98334.98
2018-06-28T01:08:35.608Z,98337.12
2018-06-28T01:09:07.242Z,98334.55
2018-06-28T01:09:38.841Z,98335.83
2018-06-28T01:10:10.421Z,98333.70
2018-06-28T01:10:42.016Z,98337.50
2018-06-28T01:11:13.598Z,98329.87
2018-06-28T01:11:45.199Z,98331.57
2018-06-28T01:12:16.810Z,98331.16
2018-06-28T01:12:48.425Z,98327.74
2018-06-28T01:13:20.004Z,98324.28
2018-06-28T01:13:51.604Z,98328.11
2018-06-28T01:14:23.216Z,98327.25
2018-06-28T01:14:54.788Z,98323.83
2018-06-28T01:15:26.356Z,98327.62
2018-06-28T01:15:57.937Z,98322.08
2018-06-28T01:16:29.549Z,98322.92
2018-06-28T01:17:01.128Z,98324.59
2018-06-28T01:17:32.730Z,98321.22
2018-06-28T01:18:04.328Z,98321.23
2018-06-28T01:18:35.957Z,98319.98
2018-06-28T01:19:07.546Z,98322.51
2018-06-28T01:19:39.194Z,98322.94
2018-06-28T01:20:10.788Z,98316.53
2018-06-28T01:20:42.375Z,98317.80
2018-06-28T01:21:13.962Z,98321.66
2018-06-28T01:21:45.574Z,98323.36
2018-06-28T01:22:17.181Z,98320.38
2018-06-28T01:22:48.752Z,98320.00
2018-06-28T01:23:20.362Z,98311.91
2018-06-28T01:23:51.996Z,98323.84
2018-06-28T01:24:23.606Z,98318.72
2018-06-28T01:24:55.224Z,98317.02
2018-06-28T01:25:26.826Z,98319.16
2018-06-28T01:25:58.418Z,98317.92
2018-06-28T01:26:30.018Z,98322.19
2018-06-28T01:27:01.665Z,98317.45
2018-06-28T01:27:33.240Z,98320.88
2018-06-28T01:28:04.822Z,98317.93
2018-06-28T01:28:36.427Z,98318.31
2018-06-28T01:29:08.004Z,98311.91
2018-06-28T01:29:39.605Z,98322.56
2018-06-28T01:30:11.194Z,98314.09
2018-06-28T01:30:42.826Z,98318.73
2018-06-28T01:31:14.415Z,98318.31
2018-06-28T01:31:46.021Z,98319.20
2018-06-28T01:32:17.610Z,98318.31
2018-06-28T01:32:49.194Z,98317.02
2018-06-28T01:33:20.779Z,98317.45
2018-06-28T01:33:52.357Z,98309.34
2018-06-28T01:34:23.957Z,98310.26
2018-06-28T01:34:55.573Z,98313.23
2018-06-28T01:35:27.162Z,98314.90
2018-06-28T01:35:58.786Z,98313.19
2018-06-28T01:36:30.371Z,98316.16
2018-06-28T01:37:01.995Z,98311.91
2018-06-28T01:37:33.568Z,98314.45
2018-06-28T01:38:05.179Z,98316.55
2018-06-28T01:38:36.786Z,98307.58
2018-06-28T01:39:08.356Z,98312.70
2018-06-28T01:39:39.958Z,98310.99
2018-06-28T01:40:11.565Z,98309.28
2018-06-28T01:40:43.158Z,98312.69
2018-06-28T01:41:14.748Z,98312.70
2018-06-28T01:41:46.359Z,98309.29
2018-06-28T01:42:17.966Z,98310.62
2018-06-28T01:42:49.603Z,98310.19
2018-06-28T01:43:21.188Z,98307.63
2018-06-28T01:43:52.764Z,98299.52
2018-06-28T01:44:24.417Z,98304.63
2018-06-28T01:44:56.008Z,98301.61
2018-06-28T01:45:27.640Z,98306.34
2018-06-28T01:45:59.227Z,98301.23
2018-06-28T01:46:30.833Z,98296.55
2018-06-28T01:47:02.422Z,98295.70
2018-06-28T01:47:34.000Z,98298.69
2018-06-28T01:48:05.601Z,98291.84
2018-06-28T01:48:37.190Z,98291.42
2018-06-28T01:49:08.793Z,98294.84
2018-06-28T01:49:40.364Z,98298.25
2018-06-28T01:50:11.965Z,98292.66
2018-06-28T01:50:43.561Z,98300.80
2018-06-28T01:51:15.185Z,98300.38
2018-06-28T01:51:46.762Z,98293.06
2018-06-28T01:52:18.365Z,98294.34
2018-06-28T01:52:49.980Z,98299.03
2018-06-28T01:53:21.566Z,98288.81
2018-06-28T01:53:53.173Z,98291.41
2018-06-28T01:54:24.825Z,98293.55
2018-06-28T01:54:56.428Z,98293.98
2018-06-28T01:55:28.006Z,98291.43
2018-06-28T01:55:59.590Z,98288.88
2018-06-28T01:56:31.160Z,98293.06
2018-06-28T01:57:02.780Z,98291.37
2018-06-28T01:57:34.398Z,98295.20
2018-06-28T01:58:05.995Z,98292.16
2018-06-28T01:58:37.608Z,98287.94
2018-06-28T01:59:09.204Z,98287.94
2018-06-28T01:59:40.813Z,98291.74
2018-06-28T02:00:12.408Z,98287.90
2018-06-28T02:00:44.030Z,98293.00
2018-06-28T02:01:15.640Z,98283.20
2018-06-28T02:01:47.241Z,98287.09
2018-06-28T02:02:18.830Z,98291.36
2018-06-28T02:02:50.410Z,98292.20
2018-06-28T02:03:21.989Z,98289.66
2018-06-28T02:03:53.598Z,98288.86
2018-06-28T02:04:25.168Z,98290.14
2018-06-28T02:04:56.760Z,98293.92
2018-06-28T02:05:28.365Z,98288.38
2018-06-28T02:05:59.966Z,98290.99
2018-06-28T02:06:31.613Z,98287.96
2018-06-28T02:07:03.197Z,98288.86
2018-06-28T02:07:34.902Z,98280.75
2018-06-28T02:08:06.490Z,98286.30
2018-06-28T02:08:38.064Z,98287.53
2018-06-28T02:09:09.651Z,98284.59
2018-06-28T02:09:41.240Z,98282.03
2018-06-28T02:10:12.847Z,98280.33
2018-06-28T02:10:44.417Z,98283.31
2018-06-28T02:11:16.003Z,98285.87
2018-06-28T02:11:47.648Z,98284.55
2018-06-28T02:12:19.220Z,98276.92
2018-06-28T02:12:50.788Z,98281.61
2018-06-28T02:13:22.366Z,98279.06
2018-06-28T02:13:53.950Z,98274.36
2018-06-28T02:14:25.554Z,98280.33
2018-06-28T02:14:57.166Z,98280.33
2018-06-28T02:15:28.762Z,98279.53
2018-06-28T02:16:00.342Z,98276.49
2018-06-28T02:16:31.936Z,98282.47
2018-06-28T02:17:03.580Z,98287.53
2018-06-28T02:17:35.173Z,98283.75
2018-06-28T02:18:06.750Z,98278.27
2018-06-28T02:18:38.413Z,98280.34
2018-06-28T02:19:09.997Z,98278.21
2018-06-28T02:19:41.577Z,98276.97
2018-06-28T02:20:13.157Z,98276.98
2018-06-28T02:20:44.749Z,98273.09
2018-06-28T02:21:16.354Z,98275.64
2018-06-28T02:21:47.941Z,98279.48
2018-06-28T02:22:19.582Z,98276.36
2018-06-28T02:22:51.172Z,98273.31
2018-06-28T02:23:22.771Z,98289.94
2018-06-28T02:23:54.361Z,98274.18
2018-06-28T02:24:25.952Z,98270.83
2018-06-28T02:24:57.548Z,98276.44
2018-06-28T02:25:29.130Z,98274.31
2018-06-28T02:26:00.733Z,98274.73
2018-06-28T02:26:32.314Z,98269.66
2018-06-28T02:27:03.889Z,98268.34
2018-06-28T02:27:35.518Z,98270.95
2018-06-28T02:28:07.096Z,98266.27
2018-06-28T02:28:38.697Z,98271.44
2018-06-28T02:29:10.334Z,98268.83
2018-06-28T02:29:41.908Z,98267.59
2018-06-28T02:30:13.489Z,98261.16
2018-06-28T02:30:45.074Z,98263.33
2018-06-28T02:31:16.657Z,98267.12
2018-06-28T02:31:48.253Z,98266.73
2018-06-28T02:32:19.866Z,98260.34
2018-06-28T02:32:51.436Z,98262.91
2018-06-28T02:33:23.086Z,98256.11
2018-06-28T02:33:54.741Z,98256.94
2018-06-28T02:34:26.326Z,98262.92
2018-06-28T02:34:57.914Z,98259.08
2018-06-28T02:35:29.488Z,98257.80
2018-06-28T02:36:01.062Z,98261.22
2018-06-28T02:36:32.672Z,98265.48
2018-06-28T02:37:04.265Z,98267.23
2018-06-28T02:37:35.836Z,98264.67
2018-06-28T02:38:07.404Z,98257.87
2018-06-28T02:38:39.010Z,98258.70
2018-06-28T02:39:10.628Z,98259.55
2018-06-28T02:39:42.210Z,98260.37
2018-06-28T02:40:13.818Z,98252.33
2018-06-28T02:40:45.447Z,98258.72
2018-06-28T02:41:17.054Z,98256.16
2018-06-28T02:41:48.637Z,98253.60
2018-06-28T02:42:20.222Z,98248.95
2018-06-28T02:42:51.802Z,98250.67
2018-06-28T02:43:23.382Z,98251.53
2018-06-28T02:43:54.961Z,98236.84
2018-06-28T02:44:26.566Z,98247.27
2018-06-28T02:44:58.164Z,98245.98
2018-06-28T02:45:29.796Z,98243.00
2018-06-28T02:46:01.407Z,98247.27
2018-06-28T02:46:33.017Z,98241.72
2018-06-28T02:47:04.629Z,98240.44
2018-06-28T02:47:36.200Z,98243.84
2018-06-28T02:48:07.801Z,98240.42
2018-06-28T02:48:39.453Z,98240.00
2018-06-28T02:49:11.055Z,98246.41
2018-06-28T02:49:42.714Z,98238.32
2018-06-28T02:50:14.308Z,98240.45
2018-06-28T02:50:45.912Z,98241.73
2018-06-28T02:51:17.485Z,98236.61
2018-06-28T02:51:49.087Z,98237.45
2018-06-28T02:52:20.715Z,98237.02
2018-06-28T02:52:52.330Z,98235.75
2018-06-28T02:53:23.918Z,98236.61
2018-06-28T02:53:55.597Z,98231.91
2018-06-28T02:54:27.212Z,98238.29
2018-06-28T02:54:58.824Z,98232.76
2018-06-28T02:55:30.441Z,98235.74
2018-06-28T02:56:02.160Z,98233.19
2018-06-28T02:56:33.771Z,98229.79
2018-06-28T02:57:05.378Z,98239.22
2018-06-28T02:57:36.990Z,98230.27
2018-06-28T02:58:08.606Z,98229.83
2018-06-28T02:58:40.180Z,98231.47
2018-06-28T02:59:11.786Z,98235.74
2018-06-28T02:59:43.375Z,98235.31
2018-06-28T03:00:14.972Z,98232.76
2018-06-28T03:00:46.590Z,98235.27
2018-06-28T03:01:18.204Z,98235.74
2018-06-28T03:01:49.806Z,98235.31
2018-06-28T03:02:21.394Z,98235.27
2018-06-28T03:02:52.998Z,98237.02
2018-06-28T03:03:24.606Z,98234.47
2018-06-28T03:03:56.199Z,98238.67
2018-06-28T03:04:27.782Z,98238.66
2018-06-28T03:04:59.376Z,98235.26
2018-06-28T03:05:31.024Z,98233.98
2018-06-28T03:06:02.600Z,98232.76
2018-06-28T03:06:34.192Z,98235.26
2018-06-28T03:07:05.801Z,98229.72
2018-06-28T03:07:37.400Z,98236.16
2018-06-28T03:08:09.038Z,98231.42
2018-06-28T03:08:40.626Z,98228.84
2018-06-28T03:09:12.293Z,98228.44
2018-06-28T03:09:43.882Z,98232.26
2018-06-28T03:10:15.545Z,98224.17
2018-06-28T03:10:47.193Z,98231.85
2018-06-28T03:11:18.801Z,98226.30
2018-06-28T03:11:50.400Z,98232.27
2018-06-28T03:12:21.995Z,98225.40
2018-06-28T03:12:53.618Z,98225.45
2018-06-28T03:13:25.198Z,98221.62
2018-06-28T03:13:56.772Z,98224.17
2018-06-28T03:14:28.349Z,98227.59
2018-06-28T03:14:59.934Z,98224.66
2018-06-28T03:15:31.594Z,98228.44
2018-06-28T03:16:03.167Z,98222.90
2018-06-28T03:16:34.740Z,98225.03
2018-06-28T03:17:06.322Z,98222.10
2018-06-28T03:17:38.029Z,98225.92
2018-06-28T03:18:09.619Z,98231.90
2018-06-28T03:18:41.196Z,98225.50
2018-06-28T03:19:12.773Z,98227.63
2018-06-28T03:19:44.373Z,98228.06
2018-06-28T03:20:15.944Z,98222.94
2018-06-28T03:20:47.576Z,98222.95
2018-06-28T03:21:19.181Z,98230.19
2018-06-28T03:21:50.776Z,98224.22
2018-06-28T03:22:22.358Z,98225.03
2018-06-28T03:22:53.928Z,98228.74
2018-06-28T03:23:25.520Z,98227.88
2018-06-28T03:23:57.097Z,98230.38
2018-06-28T03:24:28.668Z,98226.95
2018-06-28T03:25:00.250Z,98224.83
2018-06-28T03:25:31.854Z,98224.41
2018-06-28T03:26:03.509Z,98223.50
2018-06-28T03:26:35.093Z,98223.11
2018-06-28T03:27:06.694Z,98234.20
2018-06-28T03:27:38.302Z,98222.68
2018-06-28T03:28:09.886Z,98224.41
2018-06-28T03:28:41.483Z,98224.02
2018-06-28T03:29:13.099Z,98226.12
2018-06-28T03:29:44.700Z,98217.20
2018-06-28T03:30:16.291Z,98224.41
2018-06-28T03:30:47.874Z,98218.85
2018-06-28T03:31:19.520Z,98220.61
2018-06-28T03:31:51.092Z,98220.62
2018-06-28T03:32:22.697Z,98215.94
2018-06-28T03:32:54.338Z,98221.11
2018-06-28T03:33:25.977Z,98224.52
2018-06-28T03:33:57.592Z,98219.78
2018-06-28T03:34:29.196Z,98222.83
2018-06-28T03:35:00.776Z,98225.80
2018-06-28T03:35:32.354Z,98225.37
2018-06-28T03:36:03.938Z,98224.95
2018-06-28T03:36:35.546Z,98225.37
2018-06-28T03:37:07.140Z,98219.00
2018-06-28T03:37:38.791Z,98221.95
2018-06-28T03:38:10.384Z,98220.67
2018-06-28T03:38:41.957Z,98221.91
2018-06-28T03:39:13.578Z,98222.77
2018-06-28T03:39:45.168Z,98218.97
2018-06-28T03:40:16.740Z,98223.66
2018-06-28T03:40:48.350Z,98221.54
2018-06-28T03:41:19.962Z,98224.11
2018-06-28T03:41:51.565Z,98224.53
2018-06-28T03:42:23.174Z,98213.02
2018-06-28T03:42:54.782Z,98218.98
2018-06-28T03:43:26.400Z,98219.78
2018-06-28T03:43:58.001Z,98224.45
2018-06-28T03:44:29.586Z,98214.22
2018-06-28T03:45:01.230Z,98224.45
2018-06-28T03:45:32.818Z,98216.36
2018-06-28T03:46:04.412Z,98222.31
2018-06-28T03:46:36.000Z,98216.34
2018-06-28T03:47:07.606Z,98219.34
2018-06-28T03:47:39.195Z,98223.62
2018-06-28T03:48:10.778Z,98221.06
2018-06-28T03:48:42.358Z,98220.67
2018-06-28T03:49:13.961Z,98221.53
2018-06-28T03:49:45.609Z,98224.04
2018-06-28T03:50:17.222Z,98221.95
2018-06-28T03:50:48.806Z,98220.21
2018-06-28T03:51:20.398Z,98227.45
2018-06-28T03:51:51.995Z,98220.27
2018-06-28T03:52:23.581Z,98225.33
2018-06-28T03:52:55.162Z,98230.51
2018-06-28T03:53:26.765Z,98228.35
2018-06-28T03:53:58.402Z,98225.75
2018-06-28T03:54:29.999Z,98230.87
2018-06-28T03:55:01.633Z,98224.09
2018-06-28T03:55:33.222Z,98224.91
2018-06-28T03:56:04.792Z,98224.02
2018-06-28T03:56:36.398Z,98226.54
2018-06-28T03:57:08.049Z,98223.53
2018-06-28T03:57:39.665Z,98222.22
2018-06-28T03:58:11.269Z,98226.94
2018-06-28T03:58:42.868Z,98218.84
2018-06-28T03:59:14.463Z,98227.80
2018-06-28T03:59:46.036Z,98223.48
2018-06-28T04:00:17.614Z,98227.73
2018-06-28T04:00:49.223Z,98228.18
2018-06-28T04:01:20.801Z,98221.35
2018-06-28T04:01:52.392Z,98226.05
2018-06-28T04:02:24.012Z,98226.05
2018-06-28T04:02:55.675Z,98222.63
2018-06-28T04:03:27.261Z,98224.32
2018-06-28T04:03:58.861Z,98219.22
2018-06-28T04:04:30.474Z,98226.03
2018-06-28T04:05:02.062Z,98226.89
2018-06-28T04:05:33.650Z,98227.75
2018-06-28T04:06:05.234Z,98220.06
2018-06-28T04:06:36.815Z,98228.13
2018-06-28T04:07:08.448Z,98222.56
2018-06-28T04:07:40.024Z,98228.13
2018-06-28T04:08:11.610Z,98225.60
2018-06-28T04:08:43.190Z,98226.03
2018-06-28T04:09:14.792Z,98215.38
2018-06-28T04:09:46.374Z,98224.32
2018-06-28T04:10:17.982Z,98223.84
2018-06-28T04:10:49.566Z,98224.75
2018-06-28T04:11:21.222Z,98219.20
2018-06-28T04:11:52.825Z,98222.14
2018-06-28T04:12:24.402Z,98223.42
2018-06-28T04:12:55.996Z,98224.70
2018-06-28T04:13:27.602Z,98223.83
2018-06-28T04:13:59.210Z,98222.48
2018-06-28T04:14:30.801Z,98228.89
2018-06-28T04:15:02.368Z,98221.65
2018-06-28T04:15:33.936Z,98233.63
2018-06-28T04:16:05.513Z,98226.82
2018-06-28T04:16:37.201Z,98224.27
2018-06-28T04:17:08.790Z,98230.24
2018-06-28T04:17:40.363Z,98229.40
2018-06-28T04:18:11.946Z,98221.77
2018-06-28T04:18:43.570Z,98222.64
2018-06-28T04:19:15.142Z,98224.33
2018-06-28T04:19:46.712Z,98227.30
2018-06-28T04:20:18.323Z,98228.13
2018-06-28T04:20:49.923Z,98225.18
2018-06-28T04:21:21.506Z,98221.77
2018-06-28T04:21:53.150Z,98220.48
2018-06-28T04:22:24.728Z,98224.75
2018-06-28T04:22:56.358Z,98225.60
2018-06-28T04:23:27.960Z,98223.89
2018-06-28T04:23:59.543Z,98223.90
2018-06-28T04:24:31.111Z,98218.42
2018-06-28T04:25:02.700Z,98223.05
2018-06-28T04:25:34.286Z,98216.23
2018-06-28T04:26:05.854Z,98222.19
2018-06-28T04:26:37.471Z,98222.13
2018-06-28T04:27:09.077Z,98220.00
2018-06-28T04:27:40.658Z,98222.13
2018-06-28T04:28:12.292Z,98223.84
2018-06-28T04:28:43.878Z,98226.82
2018-06-28T04:29:15.449Z,98222.98
2018-06-28T04:29:47.054Z,98220.86
2018-06-28T04:30:18.666Z,98222.98
2018-06-28T04:30:50.242Z,98217.00
2018-06-28T04:31:21.849Z,98219.56
2018-06-28T04:31:53.453Z,98219.98
2018-06-28T04:32:25.039Z,98219.16
2018-06-28T04:32:56.608Z,98217.88
2018-06-28T04:33:28.190Z,98221.33
2018-06-28T04:33:59.797Z,98217.02
2018-06-28T04:34:31.386Z,98219.14
2018-06-28T04:35:03.032Z,98209.03
2018-06-28T04:35:34.646Z,98213.55
2018-06-28T04:36:06.216Z,98217.80
2018-06-28T04:36:37.822Z,98216.52
2018-06-28T04:37:09.409Z,98214.80
2018-06-28T04:37:40.993Z,98212.67
2018-06-28T04:38:12.584Z,98209.70
2018-06-28T04:38:44.179Z,98217.00
2018-06-28T04:39:15.796Z,98217.37
2018-06-28T04:39:47.382Z,98210.59
2018-06-28T04:40:19.027Z,98208.43
2018-06-28T04:40:50.629Z,98208.47
2018-06-28T04:41:22.421Z,98218.27
2018-06-28T04:41:54.002Z,98207.63
2018-06-28T04:42:25.587Z,98210.20
2018-06-28T04:42:57.175Z,98216.16
2018-06-28T04:43:28.785Z,98213.61
2018-06-28T04:44:00.373Z,98207.64
2018-06-28T04:44:31.958Z,98206.35
2018-06-28T04:45:03.600Z,98205.48
2018-06-28T04:45:35.187Z,98211.03
2018-06-28T04:46:06.789Z,98206.76
2018-06-28T04:46:38.401Z,98214.45
2018-06-28T04:47:09.982Z,98205.08
2018-06-28T04:47:41.590Z,98208.04
2018-06-28T04:48:13.198Z,98209.34
2018-06-28T04:48:44.800Z,98205.50
2018-06-28T04:49:16.387Z,98208.06
2018-06-28T04:49:47.992Z,98208.06
2018-06-28T04:50:19.630Z,98204.27
2018-06-28T04:50:51.215Z,98205.08
2018-06-28T04:51:22.812Z,98206.34
2018-06-28T04:51:54.426Z,98204.63
2018-06-28T04:52:25.996Z,98204.23
2018-06-28T04:52:57.574Z,98201.66
2018-06-28T04:53:29.182Z,98202.56
2018-06-28T04:54:00.774Z,98203.80
2018-06-28T04:54:32.368Z,98201.71
2018-06-28T04:55:03.941Z,98206.83
2018-06-28T04:55:35.552Z,98205.13
2018-06-28T04:56:07.153Z,98204.23
2018-06-28T04:56:38.758Z,98202.09
2018-06-28T04:57:10.374Z,98200.87
2018-06-28T04:57:41.958Z,98203.80
2018-06-28T04:58:13.565Z,98201.23
2018-06-28T04:58:45.160Z,98202.94
2018-06-28T04:59:16.768Z,98202.51
2018-06-28T04:59:48.409Z,98197.39
2018-06-28T05:00:19.990Z,98197.39
2018-06-28T05:00:51.574Z,98198.24
2018-06-28T05:01:23.190Z,98199.95
2018-06-28T05:01:54.766Z,98205.48
2018-06-28T05:02:26.336Z,98200.36
2018-06-28T05:02:57.932Z,98195.20
2018-06-28T05:03:29.585Z,98200.36
2018-06-28T05:04:01.170Z,98195.63
2018-06-28T05:04:32.744Z,98191.36
2018-06-28T05:05:04.354Z,98195.63
2018-06-28T05:05:35.961Z,98199.09
2018-06-28T05:06:07.537Z,98193.13
2018-06-28T05:06:39.138Z,98196.53
2018-06-28T05:07:10.854Z,98198.25
2018-06-28T05:07:42.342Z,98198.24
2018-06-28T05:08:13.920Z,98196.54
2018-06-28T05:08:45.546Z,98195.70
2018-06-28T05:09:17.169Z,98199.09
2018-06-28T05:09:48.750Z,98204.64
2018-06-28T05:10:20.325Z,98197.39
2018-06-28T05:10:51.937Z,98199.10
2018-06-28T05:11:23.546Z,98201.64
2018-06-28T05:11:55.117Z,98197.76
2018-06-28T05:12:26.726Z,98199.46
2018-06-28T05:12:58.304Z,98195.20
2018-06-28T05:13:29.930Z,98191.40
2018-06-28T05:14:01.514Z,98192.63
2018-06-28T05:14:33.161Z,98195.61
2018-06-28T05:15:04.796Z,98192.62
2018-06-28T05:15:36.386Z,98198.02
2018-06-28T05:16:07.956Z,98197.97
2018-06-28T05:16:39.532Z,98196.63
2018-06-28T05:17:11.174Z,98200.27
2018-06-28T05:17:42.735Z,98200.55
2018-06-28T05:18:14.341Z,98193.78
2018-06-28T05:18:45.957Z,98191.72
2018-06-28T05:19:17.556Z,98187.59
2018-06-28T05:19:49.206Z,98194.06
2018-06-28T05:20:20.798Z,98193.22
2018-06-28T05:20:52.402Z,98194.98
2018-06-28T05:21:24.060Z,98194.63
2018-06-28T05:21:55.616Z,98194.28
2018-06-28T05:22:27.243Z,98202.37
2018-06-28T05:22:58.849Z,98179.91
2018-06-28T05:23:30.438Z,98194.07
2018-06-28T05:24:02.042Z,98194.50
2018-06-28T05:24:33.726Z,98190.30
2018-06-28T05:25:05.305Z,98198.47
2018-06-28T05:25:36.913Z,98190.00
2018-06-28T05:26:08.522Z,98197.75
2018-06-28T05:26:40.110Z,98189.28
2018-06-28T05:27:11.713Z,98199.97
2018-06-28T05:27:43.333Z,98190.22
2018-06-28T05:28:14.912Z,98197.52
2018-06-28T05:28:46.493Z,98192.42
2018-06-28T05:29:18.100Z,98188.83
2018-06-28T05:29:49.709Z,98201.44
2018-06-28T05:30:21.321Z,98192.95
2018-06-28T05:30:52.925Z,98200.64
2018-06-28T05:31:24.538Z,98196.39
2018-06-28T05:31:56.124Z,98196.02
2018-06-28T05:32:27.770Z,98201.57
2018-06-28T05:32:59.444Z,98195.61
2018-06-28T05:33:31.077Z,98199.06
2018-06-28T05:34:02.672Z,98196.08
2018-06-28T05:34:34.286Z,98193.95
2018-06-28T05:35:05.897Z,98193.53
2018-06-28T05:35:37.510Z,98193.54
2018-06-28T05:36:09.123Z,98194.43
2018-06-28T05:36:40.738Z,98201.26
2018-06-28T05:37:12.346Z,98198.28
2018-06-28T05:37:43.940Z,98195.30
2018-06-28T05:38:15.521Z,98199.14
2018-06-28T05:38:47.116Z,98198.28
2018-06-28T05:39:18.771Z,98194.03
2018-06-28T05:39:50.352Z,98191.94
2018-06-28T05:40:21.936Z,98190.67
2018-06-28T05:40:53.528Z,98191.90
2018-06-28T05:41:25.137Z,98187.64
2018-06-28T05:41:56.746Z,98187.25
2018-06-28T05:42:28.358Z,98188.10
2018-06-28T05:42:59.938Z,98194.50
2018-06-28T05:43:31.538Z,98190.67
2018-06-28T05:44:03.150Z,98187.69
2018-06-28T05:44:34.837Z,98186.41
2018-06-28T05:45:06.412Z,98191.54
2018-06-28T05:45:37.998Z,98186.42
2018-06-28T05:46:09.610Z,98185.14
2018-06-28T05:46:41.222Z,98187.28
2018-06-28T05:47:12.854Z,98189.83
2018-06-28T05:47:44.436Z,98189.02
2018-06-28T05:48:16.022Z,98186.89
2018-06-28T05:48:47.616Z,98183.91
2018-06-28T05:49:19.202Z,98180.93
2018-06-28T05:49:50.856Z,98183.06
2018-06-28T05:50:22.447Z,98189.46
2018-06-28T05:50:54.028Z,98183.91
2018-06-28T05:51:25.630Z,98186.05
2018-06-28T05:51:57.208Z,98188.19
2018-06-28T05:52:28.786Z,98185.25
2018-06-28T05:53:00.394Z,98180.99
2018-06-28T05:53:31.968Z,98179.70
2018-06-28T05:54:03.614Z,98183.55
2018-06-28T05:54:35.194Z,98178.86
2018-06-28T05:55:06.818Z,98178.44
2018-06-28T05:55:38.384Z,98176.73
2018-06-28T05:56:09.957Z,98178.45
2018-06-28T05:56:41.537Z,98179.73
2018-06-28T05:57:13.182Z,98176.36
2018-06-28T05:57:44.779Z,98170.81
2018-06-28T05:58:16.356Z,98176.79
2018-06-28T05:58:47.958Z,98169.54
2018-06-28T05:59:19.538Z,98169.55
2018-06-28T05:59:51.117Z,98169.55
2018-06-28T06:00:22.684Z,98171.69
2018-06-28T06:00:54.293Z,98169.98
2018-06-28T06:01:25.890Z,98166.58
2018-06-28T06:01:57.541Z,98168.71
2018-06-28T06:02:29.150Z,98167.00
2018-06-28T06:03:00.745Z,98170.41
2018-06-28T06:03:32.326Z,98169.19
2018-06-28T06:04:03.920Z,98169.62
2018-06-28T06:04:35.530Z,98170.45
2018-06-28T06:05:07.114Z,98173.88
2018-06-28T06:05:38.749Z,98168.76
2018-06-28T06:06:10.349Z,98167.48
2018-06-28T06:06:41.963Z,98166.21
2018-06-28T06:07:13.550Z,98164.94
2018-06-28T06:07:45.130Z,98163.66
2018-06-28T06:08:16.720Z,98165.36
2018-06-28T06:08:48.344Z,98168.34
2018-06-28T06:09:20.008Z,98160.71
2018-06-28T06:09:51.540Z,98167.53
2018-06-28T06:10:23.213Z,98166.25
2018-06-28T06:10:54.777Z,98166.25